sensor_id;sensor_type;location;lat;lon;timestamp;pressure;altitude;pressure_sealevel;temperature;humidity
37634;BME280;32048;49.902;22.508;2022-07-29T00:00:15;99066.88;;;14.20;100.00
37634;BME280;32048;49.902;22.508;2022-07-29T00:03:02;99066.19;;;14.17;100.00
37634;BME280;32048;49.902;22.508;2022-07-29T00:05:29;99063.75;;;14.13;100.00
37634;BME280;32048;49.902;22.508;2022-07-29T00:07:57;99058.53;;;14.12;100.00
37634;BME280;32048;49.902;22.508;2022-07-29T00:10:24;99057.97;;;14.07;100.00
37634;BME280;32048;49.902;22.508;2022-07-29T00:12:51;99049.59;;;13.99;100.00
37634;BME280;32048;49.902;22.508;2022-07-29T00:15:18;99056.06;;;13.95;100.00
37634;BME280;32048;49.902;22.508;2022-07-29T00:17:45;99044.78;;;13.91;100.00
37634;BME280;32048;49.902;22.508;2022-07-29T00:20:12;99043.16;;;13.88;100.00
37634;BME280;32048;49.902;22.508;2022-07-29T00:22:39;99045.97;;;13.85;100.00
37634;BME280;32048;49.902;22.508;2022-07-29T00:25:06;99047.16;;;13.81;100.00
37634;BME280;32048;49.902;22.508;2022-07-29T00:27:37;99055.28;;;13.78;100.00
37634;BME280;32048;49.902;22.508;2022-07-29T00:30:05;99051.00;;;13.76;100.00
37634;BME280;32048;49.902;22.508;2022-07-29T00:32:33;99048.56;;;13.72;100.00
37634;BME280;32048;49.902;22.508;2022-07-29T00:35:00;99054.91;;;13.70;100.00
37634;BME280;32048;49.902;22.508;2022-07-29T00:37:46;99055.84;;;13.69;100.00
37634;BME280;32048;49.902;22.508;2022-07-29T00:40:13;99068.16;;;13.70;100.00
37634;BME280;32048;49.902;22.508;2022-07-29T00:42:46;99066.03;;;13.61;100.00
37634;BME280;32048;49.902;22.508;2022-07-29T00:45:14;99066.31;;;13.56;100.00
37634;BME280;32048;49.902;22.508;2022-07-29T00:47:42;99064.81;;;13.52;100.00
37634;BME280;32048;49.902;22.508;2022-07-29T00:50:10;99059.66;;;13.49;100.00
37634;BME280;32048;49.902;22.508;2022-07-29T00:52:40;99062.41;;;13.47;100.00
37634;BME280;32048;49.902;22.508;2022-07-29T00:55:13;99053.78;;;13.44;100.00
37634;BME280;32048;49.902;22.508;2022-07-29T00:57:42;99060.13;;;13.41;100.00
37634;BME280;32048;49.902;22.508;2022-07-29T01:00:15;99060.41;;;13.37;100.00
37634;BME280;32048;49.902;22.508;2022-07-29T01:02:45;99059.72;;;13.33;100.00
37634;BME280;32048;49.902;22.508;2022-07-29T01:05:17;99059.13;;;13.28;100.00
37634;BME280;32048;49.902;22.508;2022-07-29T01:07:46;99055.75;;;13.24;100.00
37634;BME280;32048;49.902;22.508;2022-07-29T01:10:14;99055.09;;;13.21;100.00
37634;BME280;32048;49.902;22.508;2022-07-29T01:12:42;99056.13;;;13.18;100.00
37634;BME280;32048;49.902;22.508;2022-07-29T01:15:10;99059.72;;;13.17;100.00
37634;BME280;32048;49.902;22.508;2022-07-29T01:17:52;99052.03;;;13.13;100.00
37634;BME280;32048;49.902;22.508;2022-07-29T01:29:30;99063.44;;;12.99;100.00
37634;BME280;32048;49.902;22.508;2022-07-29T01:32:11;99052.25;;;12.94;100.00
37634;BME280;32048;49.902;22.508;2022-07-29T01:37:26;99060.34;;;12.90;100.00
37634;BME280;32048;49.902;22.508;2022-07-29T01:39:56;99041.88;;;12.89;100.00
37634;BME280;32048;49.902;22.508;2022-07-29T01:42:28;99045.56;;;12.86;100.00
37634;BME280;32048;49.902;22.508;2022-07-29T01:45:00;99043.88;;;12.85;100.00
37634;BME280;32048;49.902;22.508;2022-07-29T01:47:37;99050.19;;;12.83;100.00
37634;BME280;32048;49.902;22.508;2022-07-29T01:50:08;99045.81;;;12.82;100.00
37634;BME280;32048;49.902;22.508;2022-07-29T01:52:44;99053.19;;;12.77;100.00
37634;BME280;32048;49.902;22.508;2022-07-29T01:55:16;99052.59;;;12.72;100.00
37634;BME280;32048;49.902;22.508;2022-07-29T01:57:46;99057.13;;;12.69;100.00
37634;BME280;32048;49.902;22.508;2022-07-29T02:00:15;99054.47;;;12.69;100.00
37634;BME280;32048;49.902;22.508;2022-07-29T02:02:44;99054.63;;;12.66;100.00
37634;BME280;32048;49.902;22.508;2022-07-29T02:05:15;99047.63;;;12.65;100.00
37634;BME280;32048;49.902;22.508;2022-07-29T02:07:44;99048.56;;;12.64;100.00
37634;BME280;32048;49.902;22.508;2022-07-29T02:10:14;99051.31;;;12.63;100.00
37634;BME280;32048;49.902;22.508;2022-07-29T02:12:44;99045.16;;;12.62;100.00
37634;BME280;32048;49.902;22.508;2022-07-29T02:15:16;99051.22;;;12.64;100.00
37634;BME280;32048;49.902;22.508;2022-07-29T02:18:16;99046.94;;;12.62;100.00
37634;BME280;32048;49.902;22.508;2022-07-29T02:20:47;99031.91;;;12.62;100.00
37634;BME280;32048;49.902;22.508;2022-07-29T02:23:19;99040.72;;;12.63;100.00
37634;BME280;32048;49.902;22.508;2022-07-29T02:25:49;99052.94;;;12.65;100.00
37634;BME280;32048;49.902;22.508;2022-07-29T02:28:19;99050.28;;;12.65;100.00
37634;BME280;32048;49.902;22.508;2022-07-29T02:30:47;99050.22;;;12.67;100.00
37634;BME280;32048;49.902;22.508;2022-07-29T02:33:17;99050.22;;;12.67;100.00
37634;BME280;32048;49.902;22.508;2022-07-29T02:35:46;99049.34;;;12.66;100.00
37634;BME280;32048;49.902;22.508;2022-07-29T02:38:18;99047.44;;;12.68;100.00
37634;BME280;32048;49.902;22.508;2022-07-29T02:41:11;99052.69;;;12.70;100.00
37634;BME280;32048;49.902;22.508;2022-07-29T02:43:40;99049.25;;;12.68;100.00
37634;BME280;32048;49.902;22.508;2022-07-29T02:46:14;99042.25;;;12.67;100.00
37634;BME280;32048;49.902;22.508;2022-07-29T02:52:03;99040.53;;;12.66;100.00
37634;BME280;32048;49.902;22.508;2022-07-29T02:54:39;99037.28;;;12.61;100.00
37634;BME280;32048;49.902;22.508;2022-07-29T02:57:22;99032.19;;;12.58;100.00
37634;BME280;32048;49.902;22.508;2022-07-29T02:59:55;99030.53;;;12.55;100.00
37634;BME280;32048;49.902;22.508;2022-07-29T03:02:25;99018.94;;;12.58;100.00
37634;BME280;32048;49.902;22.508;2022-07-29T03:04:53;99029.53;;;12.58;100.00
37634;BME280;32048;49.902;22.508;2022-07-29T03:07:24;99028.56;;;12.59;100.00
37634;BME280;32048;49.902;22.508;2022-07-29T03:09:52;99029.44;;;12.59;100.00
37634;BME280;32048;49.902;22.508;2022-07-29T03:12:19;99034.06;;;12.56;100.00
37634;BME280;32048;49.902;22.508;2022-07-29T03:14:47;99037.72;;;12.53;100.00
37634;BME280;32048;49.902;22.508;2022-07-29T03:17:15;99027.09;;;12.53;100.00
37634;BME280;32048;49.902;22.508;2022-07-29T03:19:43;99025.09;;;12.58;100.00
37634;BME280;32048;49.902;22.508;2022-07-29T03:22:10;99023.09;;;12.62;100.00
37634;BME280;32048;49.902;22.508;2022-07-29T03:24:37;99027.13;;;12.69;100.00
37634;BME280;32048;49.902;22.508;2022-07-29T03:27:04;99019.69;;;12.76;100.00
37634;BME280;32048;49.902;22.508;2022-07-29T03:29:32;99021.91;;;12.83;100.00
37634;BME280;32048;49.902;22.508;2022-07-29T03:32:04;99018.91;;;12.89;100.00
37634;BME280;32048;49.902;22.508;2022-07-29T03:34:36;99030.34;;;12.90;100.00
37634;BME280;32048;49.902;22.508;2022-07-29T03:37:04;99030.28;;;12.92;100.00
37634;BME280;32048;49.902;22.508;2022-07-29T03:39:36;99025.63;;;12.95;100.00
37634;BME280;32048;49.902;22.508;2022-07-29T03:42:06;99035.69;;;13.04;100.00
37634;BME280;32048;49.902;22.508;2022-07-29T03:44:36;99032.50;;;13.14;100.00
37634;BME280;32048;49.902;22.508;2022-07-29T03:47:05;99019.41;;;13.26;100.00
37634;BME280;32048;49.902;22.508;2022-07-29T03:49:35;99015.88;;;13.42;100.00
37634;BME280;32048;49.902;22.508;2022-07-29T03:52:04;99023.22;;;13.52;100.00
37634;BME280;32048;49.902;22.508;2022-07-29T03:54:31;99025.09;;;13.65;100.00
37634;BME280;32048;49.902;22.508;2022-07-29T03:57:00;99022.00;;;13.72;100.00
37634;BME280;32048;49.902;22.508;2022-07-29T03:59:30;99025.16;;;13.79;100.00
37634;BME280;32048;49.902;22.508;2022-07-29T04:02:01;99025.50;;;13.87;100.00
37634;BME280;32048;49.902;22.508;2022-07-29T04:04:32;99024.84;;;13.98;100.00
37634;BME280;32048;49.902;22.508;2022-07-29T04:07:00;99026.47;;;14.15;100.00
37634;BME280;32048;49.902;22.508;2022-07-29T04:09:27;99023.59;;;14.32;100.00
37634;BME280;32048;49.902;22.508;2022-07-29T04:11:54;99017.91;;;14.53;100.00
37634;BME280;32048;49.902;22.508;2022-07-29T04:14:31;99025.34;;;14.75;100.00
37634;BME280;32048;49.902;22.508;2022-07-29T04:16:59;99020.44;;;14.96;100.00
37634;BME280;32048;49.902;22.508;2022-07-29T04:19:26;99025.59;;;15.12;100.00
37634;BME280;32048;49.902;22.508;2022-07-29T04:21:53;99026.69;;;15.22;100.00
37634;BME280;32048;49.902;22.508;2022-07-29T04:24:20;99025.44;;;15.28;100.00
37634;BME280;32048;49.902;22.508;2022-07-29T04:26:47;99017.81;;;15.36;100.00
37634;BME280;32048;49.902;22.508;2022-07-29T04:29:15;99021.75;;;15.43;100.00
37634;BME280;32048;49.902;22.508;2022-07-29T04:31:42;99023.25;;;15.47;100.00
37634;BME280;32048;49.902;22.508;2022-07-29T04:34:11;99025.69;;;15.50;100.00
37634;BME280;32048;49.902;22.508;2022-07-29T04:36:39;99022.63;;;15.56;100.00
37634;BME280;32048;49.902;22.508;2022-07-29T04:39:06;99015.84;;;15.78;100.00
37634;BME280;32048;49.902;22.508;2022-07-29T04:41:33;99018.38;;;16.05;100.00
37634;BME280;32048;49.902;22.508;2022-07-29T04:44:00;99013.34;;;16.39;100.00
37634;BME280;32048;49.902;22.508;2022-07-29T04:46:33;99010.75;;;16.74;100.00
37634;BME280;32048;49.902;22.508;2022-07-29T04:49:00;99014.25;;;17.12;100.00
37634;BME280;32048;49.902;22.508;2022-07-29T04:51:27;99017.78;;;17.48;100.00
37634;BME280;32048;49.902;22.508;2022-07-29T04:53:54;99021.06;;;17.86;100.00
37634;BME280;32048;49.902;22.508;2022-07-29T04:56:21;99021.56;;;18.25;100.00
37634;BME280;32048;49.902;22.508;2022-07-29T04:58:48;99018.97;;;18.69;100.00
37634;BME280;32048;49.902;22.508;2022-07-29T05:01:15;99022.56;;;19.02;97.15
37634;BME280;32048;49.902;22.508;2022-07-29T05:03:42;99024.94;;;19.16;92.63
37634;BME280;32048;49.902;22.508;2022-07-29T05:06:09;99030.63;;;19.23;91.68
37634;BME280;32048;49.902;22.508;2022-07-29T05:08:36;99037.69;;;19.24;90.21
37634;BME280;32048;49.902;22.508;2022-07-29T05:11:03;99027.50;;;19.39;90.14
37634;BME280;32048;49.902;22.508;2022-07-29T05:13:39;99029.91;;;19.74;89.16
37634;BME280;32048;49.902;22.508;2022-07-29T05:16:12;99023.72;;;20.04;87.53
37634;BME280;32048;49.902;22.508;2022-07-29T05:18:40;99028.56;;;20.41;82.94
37634;BME280;32048;49.902;22.508;2022-07-29T05:21:07;99025.28;;;20.68;80.86
37634;BME280;32048;49.902;22.508;2022-07-29T05:23:34;99029.75;;;20.99;74.57
37634;BME280;32048;49.902;22.508;2022-07-29T05:26:01;99028.50;;;21.42;69.86
37634;BME280;32048;49.902;22.508;2022-07-29T05:28:28;99030.69;;;21.85;67.30
37634;BME280;32048;49.902;22.508;2022-07-29T05:30:55;99034.13;;;22.34;65.21
37634;BME280;32048;49.902;22.508;2022-07-29T05:33:23;99031.41;;;22.72;62.35
37634;BME280;32048;49.902;22.508;2022-07-29T05:36:05;99025.59;;;22.94;58.96
37634;BME280;32048;49.902;22.508;2022-07-29T05:38:35;99021.47;;;23.18;58.85
37634;BME280;32048;49.902;22.508;2022-07-29T05:41:03;99017.06;;;23.53;56.05
37634;BME280;32048;49.902;22.508;2022-07-29T05:43:30;99021.66;;;23.78;54.94
37634;BME280;32048;49.902;22.508;2022-07-29T05:45:57;99021.72;;;23.69;55.42
37634;BME280;32048;49.902;22.508;2022-07-29T05:48:25;99022.88;;;23.84;54.34
37634;BME280;32048;49.902;22.508;2022-07-29T05:50:52;99021.19;;;24.09;53.02
37634;BME280;32048;49.902;22.508;2022-07-29T05:53:19;99017.59;;;24.35;50.31
37634;BME280;32048;49.902;22.508;2022-07-29T05:55:47;99030.31;;;24.42;50.48
37634;BME280;32048;49.902;22.508;2022-07-29T05:58:14;99019.66;;;24.67;49.80
37634;BME280;32048;49.902;22.508;2022-07-29T06:00:42;99024.28;;;24.99;47.99
37634;BME280;32048;49.902;22.508;2022-07-29T06:03:08;99028.31;;;24.87;47.19
37634;BME280;32048;49.902;22.508;2022-07-29T06:05:36;99024.13;;;25.17;46.95
37634;BME280;32048;49.902;22.508;2022-07-29T06:08:03;99018.97;;;25.48;45.69
37634;BME280;32048;49.902;22.508;2022-07-29T06:10:33;99016.09;;;25.91;46.08
37634;BME280;32048;49.902;22.508;2022-07-29T06:13:01;99014.59;;;26.36;44.28
37634;BME280;32048;49.902;22.508;2022-07-29T06:15:28;99023.13;;;26.72;42.60
37634;BME280;32048;49.902;22.508;2022-07-29T06:17:54;99025.81;;;27.04;41.29
37634;BME280;32048;49.902;22.508;2022-07-29T06:20:27;99028.59;;;27.27;40.21
37634;BME280;32048;49.902;22.508;2022-07-29T06:22:57;99031.41;;;27.56;40.47
37634;BME280;32048;49.902;22.508;2022-07-29T06:25:24;99030.06;;;27.98;40.01
37634;BME280;32048;49.902;22.508;2022-07-29T06:27:50;99023.91;;;28.34;38.48
37634;BME280;32048;49.902;22.508;2022-07-29T06:30:18;99019.78;;;28.68;38.17
37634;BME280;32048;49.902;22.508;2022-07-29T06:32:44;99028.31;;;29.01;37.43
37634;BME280;32048;49.902;22.508;2022-07-29T06:35:11;99030.56;;;29.13;36.52
37634;BME280;32048;49.902;22.508;2022-07-29T06:37:58;99031.47;;;29.20;37.14
37634;BME280;32048;49.902;22.508;2022-07-29T06:40:26;99016.06;;;29.49;36.01
37634;BME280;32048;49.902;22.508;2022-07-29T06:43:11;99030.88;;;29.46;34.43
37634;BME280;32048;49.902;22.508;2022-07-29T06:45:38;99020.25;;;28.57;36.51
37634;BME280;32048;49.902;22.508;2022-07-29T06:48:09;99015.44;;;28.44;37.87
37634;BME280;32048;49.902;22.508;2022-07-29T06:50:36;99011.31;;;28.78;37.22
37634;BME280;32048;49.902;22.508;2022-07-29T06:53:03;99019.47;;;29.14;36.67
37634;BME280;32048;49.902;22.508;2022-07-29T06:55:30;99009.44;;;29.58;36.10
37634;BME280;32048;49.902;22.508;2022-07-29T06:57:58;99016.69;;;29.94;34.76
37634;BME280;32048;49.902;22.508;2022-07-29T07:00:24;99021.94;;;30.02;35.09
37634;BME280;32048;49.902;22.508;2022-07-29T07:02:51;99011.19;;;29.66;34.24
37634;BME280;32048;49.902;22.508;2022-07-29T07:05:19;99013.88;;;29.37;35.63
37634;BME280;32048;49.902;22.508;2022-07-29T07:07:45;99016.31;;;29.32;36.45
37634;BME280;32048;49.902;22.508;2022-07-29T07:10:12;99012.56;;;29.12;35.32
37634;BME280;32048;49.902;22.508;2022-07-29T07:12:39;99008.50;;;29.08;36.55
37634;BME280;32048;49.902;22.508;2022-07-29T07:15:06;99013.22;;;28.99;36.23
37634;BME280;32048;49.902;22.508;2022-07-29T07:17:33;99005.69;;;28.79;38.18
37634;BME280;32048;49.902;22.508;2022-07-29T07:20:00;99006.44;;;28.73;37.05
37634;BME280;32048;49.902;22.508;2022-07-29T07:22:27;99001.31;;;28.34;37.04
37634;BME280;32048;49.902;22.508;2022-07-29T07:24:54;99003.19;;;28.04;38.33
37634;BME280;32048;49.902;22.508;2022-07-29T07:27:21;99004.84;;;27.67;38.98
37634;BME280;32048;49.902;22.508;2022-07-29T07:29:48;99003.88;;;27.45;40.61
37634;BME280;32048;49.902;22.508;2022-07-29T07:32:15;98993.44;;;27.94;40.85
37634;BME280;32048;49.902;22.508;2022-07-29T07:34:43;98994.50;;;28.89;37.62
37634;BME280;32048;49.902;22.508;2022-07-29T07:37:10;99002.19;;;29.65;37.06
37634;BME280;32048;49.902;22.508;2022-07-29T07:39:37;99004.44;;;30.46;36.63
37634;BME280;32048;49.902;22.508;2022-07-29T07:42:04;99004.94;;;31.18;34.52
37634;BME280;32048;49.902;22.508;2022-07-29T07:44:31;99005.41;;;31.61;34.30
37634;BME280;32048;49.902;22.508;2022-07-29T07:47:08;99000.59;;;31.97;33.13
37634;BME280;32048;49.902;22.508;2022-07-29T07:49:38;99006.66;;;31.85;31.69
37634;BME280;32048;49.902;22.508;2022-07-29T07:52:07;98994.47;;;31.75;33.84
37634;BME280;32048;49.902;22.508;2022-07-29T07:54:34;98995.50;;;32.27;33.45
37634;BME280;32048;49.902;22.508;2022-07-29T07:57:01;98995.56;;;32.72;31.62
37634;BME280;32048;49.902;22.508;2022-07-29T07:59:27;98999.75;;;33.20;31.10
37634;BME280;32048;49.902;22.508;2022-07-29T08:01:55;98991.78;;;33.75;30.36
37634;BME280;32048;49.902;22.508;2022-07-29T08:04:23;99001.69;;;33.94;29.90
37634;BME280;32048;49.902;22.508;2022-07-29T08:06:55;99001.34;;;34.09;29.91
37634;BME280;32048;49.902;22.508;2022-07-29T08:09:25;98992.72;;;33.87;29.63
37634;BME280;32048;49.902;22.508;2022-07-29T08:11:56;98999.97;;;34.00;29.46
37634;BME280;32048;49.902;22.508;2022-07-29T08:14:23;98991.94;;;34.24;29.96
37634;BME280;32048;49.902;22.508;2022-07-29T08:16:50;98996.28;;;34.50;28.57
37634;BME280;32048;49.902;22.508;2022-07-29T08:19:18;98993.25;;;34.58;29.18
37634;BME280;32048;49.902;22.508;2022-07-29T08:21:45;98996.91;;;34.70;29.33
37634;BME280;32048;49.902;22.508;2022-07-29T08:24:12;98992.38;;;34.94;29.04
37634;BME280;32048;49.902;22.508;2022-07-29T08:26:57;98999.13;;;35.10;28.20
37634;BME280;32048;49.902;22.508;2022-07-29T08:29:25;99011.63;;;35.06;27.75
37634;BME280;32048;49.902;22.508;2022-07-29T08:31:51;99003.75;;;34.80;28.25
37634;BME280;32048;49.902;22.508;2022-07-29T08:34:19;99003.41;;;34.76;27.83
37634;BME280;32048;49.902;22.508;2022-07-29T08:36:54;99009.19;;;34.68;28.92
37634;BME280;32048;49.902;22.508;2022-07-29T08:39:22;98999.16;;;34.92;30.06
37634;BME280;32048;49.902;22.508;2022-07-29T08:41:49;98998.56;;;35.20;27.84
37634;BME280;32048;49.902;22.508;2022-07-29T08:44:23;99002.09;;;35.39;28.62
37634;BME280;32048;49.902;22.508;2022-07-29T08:46:56;99007.28;;;35.59;28.37
37634;BME280;32048;49.902;22.508;2022-07-29T08:49:23;99012.72;;;36.01;27.36
37634;BME280;32048;49.902;22.508;2022-07-29T08:51:51;99008.84;;;36.61;26.24
37634;BME280;32048;49.902;22.508;2022-07-29T08:54:21;99001.44;;;37.02;26.26
37634;BME280;32048;49.902;22.508;2022-07-29T08:56:50;99002.72;;;37.11;25.02
37634;BME280;32048;49.902;22.508;2022-07-29T08:59:22;98997.16;;;37.23;25.70
37634;BME280;32048;49.902;22.508;2022-07-29T09:01:52;98996.47;;;37.33;25.69
37634;BME280;32048;49.902;22.508;2022-07-29T09:04:21;98981.31;;;37.47;26.67
37634;BME280;32048;49.902;22.508;2022-07-29T09:06:51;98997.03;;;37.63;25.99
37634;BME280;32048;49.902;22.508;2022-07-29T09:09:21;98987.09;;;37.79;25.26
37634;BME280;32048;49.902;22.508;2022-07-29T09:11:48;98986.25;;;37.62;25.72
37634;BME280;32048;49.902;22.508;2022-07-29T09:14:15;98983.97;;;37.25;26.18
37634;BME280;32048;49.902;22.508;2022-07-29T09:16:51;98983.47;;;37.28;25.56
37634;BME280;32048;49.902;22.508;2022-07-29T09:19:26;98978.47;;;37.42;25.30
37634;BME280;32048;49.902;22.508;2022-07-29T09:21:54;98976.78;;;37.24;24.82
37634;BME280;32048;49.902;22.508;2022-07-29T09:24:26;98982.59;;;36.18;26.50
37634;BME280;32048;49.902;22.508;2022-07-29T09:26:53;98979.72;;;35.66;27.35
37634;BME280;32048;49.902;22.508;2022-07-29T09:29:23;98974.28;;;35.05;27.77
37634;BME280;32048;49.902;22.508;2022-07-29T09:31:52;98961.81;;;34.91;29.11
37634;BME280;32048;49.902;22.508;2022-07-29T09:34:24;98975.50;;;35.09;27.56
37634;BME280;32048;49.902;22.508;2022-07-29T09:36:53;98958.75;;;35.29;29.12
37634;BME280;32048;49.902;22.508;2022-07-29T09:39:32;98960.56;;;35.47;28.07
37634;BME280;32048;49.902;22.508;2022-07-29T09:42:01;98971.41;;;35.54;27.81
37634;BME280;32048;49.902;22.508;2022-07-29T09:44:47;98958.25;;;35.21;27.93
37634;BME280;32048;49.902;22.508;2022-07-29T09:47:16;98974.13;;;35.18;27.78
37634;BME280;32048;49.902;22.508;2022-07-29T09:52:18;98964.06;;;34.64;28.71
37634;BME280;32048;49.902;22.508;2022-07-29T09:54:46;98955.84;;;34.45;29.60
37634;BME280;32048;49.902;22.508;2022-07-29T09:57:27;98958.22;;;34.23;30.85
37634;BME280;32048;49.902;22.508;2022-07-29T10:00:15;98953.63;;;34.17;30.81
37634;BME280;32048;49.902;22.508;2022-07-29T10:02:44;98955.41;;;34.67;30.46
37634;BME280;32048;49.902;22.508;2022-07-29T10:05:20;98953.81;;;34.22;29.65
37634;BME280;32048;49.902;22.508;2022-07-29T10:07:49;98955.34;;;34.18;30.20
37634;BME280;32048;49.902;22.508;2022-07-29T10:12:58;98946.84;;;34.75;30.34
37634;BME280;32048;49.902;22.508;2022-07-29T10:15:35;98952.19;;;34.51;29.95
37634;BME280;32048;49.902;22.508;2022-07-29T10:18:12;98945.97;;;34.44;29.49
37634;BME280;32048;49.902;22.508;2022-07-29T10:20:39;98934.09;;;34.81;29.83
37634;BME280;32048;49.902;22.508;2022-07-29T10:23:06;98943.38;;;35.10;29.06
37634;BME280;32048;49.902;22.508;2022-07-29T10:25:33;98943.91;;;35.18;29.33
37634;BME280;32048;49.902;22.508;2022-07-29T10:28:00;98955.41;;;34.67;30.07
37634;BME280;32048;49.902;22.508;2022-07-29T10:30:27;98950.66;;;34.00;31.06
37634;BME280;32048;49.902;22.508;2022-07-29T10:33:01;98945.31;;;33.87;31.76
37634;BME280;32048;49.902;22.508;2022-07-29T10:43:49;98937.22;;;32.33;33.71
37634;BME280;32048;49.902;22.508;2022-07-29T10:46:17;98933.06;;;32.24;34.52
37634;BME280;32048;49.902;22.508;2022-07-29T10:49:07;98923.81;;;32.31;33.41
37634;BME280;32048;49.902;22.508;2022-07-29T10:52:03;98938.16;;;32.14;33.51
37634;BME280;32048;49.902;22.508;2022-07-29T10:57:25;98923.44;;;32.15;33.46
37634;BME280;32048;49.902;22.508;2022-07-29T11:02:44;98919.13;;;31.47;36.42
37634;BME280;32048;49.902;22.508;2022-07-29T11:08:23;98921.38;;;31.90;35.84
37634;BME280;32048;49.902;22.508;2022-07-29T11:19:23;98916.00;;;33.69;31.69
37634;BME280;32048;49.902;22.508;2022-07-29T11:21:56;98912.28;;;34.00;30.79
37634;BME280;32048;49.902;22.508;2022-07-29T11:24:26;98907.66;;;34.38;30.88
37634;BME280;32048;49.902;22.508;2022-07-29T11:30:01;98899.63;;;35.15;29.54
37634;BME280;32048;49.902;22.508;2022-07-29T11:32:41;98903.53;;;35.07;30.29
37634;BME280;32048;49.902;22.508;2022-07-29T11:35:13;98896.59;;;35.05;29.86
37634;BME280;32048;49.902;22.508;2022-07-29T11:38:33;98897.84;;;35.21;29.15
37634;BME280;32048;49.902;22.508;2022-07-29T11:40:33;98898.78;;;35.14;30.41
37634;BME280;32048;49.902;22.508;2022-07-29T11:43:01;98892.22;;;34.55;29.74
37634;BME280;32048;49.902;22.508;2022-07-29T11:45:46;98891.53;;;34.90;28.31
37634;BME280;32048;49.902;22.508;2022-07-29T11:48:17;98889.25;;;35.17;29.89
37634;BME280;32048;49.902;22.508;2022-07-29T11:50:56;98890.09;;;35.41;29.07
37634;BME280;32048;49.902;22.508;2022-07-29T11:53:24;98886.06;;;34.90;29.87
37634;BME280;32048;49.902;22.508;2022-07-29T11:55:55;98885.19;;;35.31;29.57
37634;BME280;32048;49.902;22.508;2022-07-29T11:58:24;98875.06;;;35.32;28.71
37634;BME280;32048;49.902;22.508;2022-07-29T12:00:52;98881.97;;;35.46;29.56
37634;BME280;32048;49.902;22.508;2022-07-29T12:03:39;98872.78;;;35.29;29.01
37634;BME280;32048;49.902;22.508;2022-07-29T12:06:13;98874.84;;;34.91;31.28
37634;BME280;32048;49.902;22.508;2022-07-29T12:08:43;98875.75;;;35.15;29.26
37634;BME280;32048;49.902;22.508;2022-07-29T12:11:20;98868.25;;;34.69;29.12
37634;BME280;32048;49.902;22.508;2022-07-29T12:13:52;98866.53;;;34.01;30.94
37634;BME280;32048;49.902;22.508;2022-07-29T12:16:22;98875.97;;;33.43;32.32
37634;BME280;32048;49.902;22.508;2022-07-29T12:18:59;98863.41;;;33.35;31.89
37634;BME280;32048;49.902;22.508;2022-07-29T12:21:36;98853.84;;;33.44;31.05
37634;BME280;32048;49.902;22.508;2022-07-29T12:24:23;98862.13;;;33.38;31.67
37634;BME280;32048;49.902;22.508;2022-07-29T12:26:57;98864.66;;;33.14;32.87
37634;BME280;32048;49.902;22.508;2022-07-29T12:29:25;98855.34;;;32.90;32.34
37634;BME280;32048;49.902;22.508;2022-07-29T12:32:02;98848.38;;;32.62;33.06
37634;BME280;32048;49.902;22.508;2022-07-29T12:34:31;98847.09;;;32.20;33.01
37634;BME280;32048;49.902;22.508;2022-07-29T12:36:58;98854.78;;;31.91;33.80
37634;BME280;32048;49.902;22.508;2022-07-29T12:39:26;98850.44;;;31.63;34.15
37634;BME280;32048;49.902;22.508;2022-07-29T12:41:54;98852.13;;;31.38;35.05
37634;BME280;32048;49.902;22.508;2022-07-29T12:45:02;98840.59;;;31.09;35.74
37634;BME280;32048;49.902;22.508;2022-07-29T12:47:30;98839.56;;;31.10;36.21
37634;BME280;32048;49.902;22.508;2022-07-29T12:50:12;98835.16;;;31.02;36.65
37634;BME280;32048;49.902;22.508;2022-07-29T12:52:41;98839.16;;;31.06;36.89
37634;BME280;32048;49.902;22.508;2022-07-29T12:55:08;98820.88;;;31.14;35.80
37634;BME280;32048;49.902;22.508;2022-07-29T12:57:49;98817.97;;;31.08;36.75
37634;BME280;32048;49.902;22.508;2022-07-29T13:00:23;98824.66;;;31.19;37.33
37634;BME280;32048;49.902;22.508;2022-07-29T13:02:56;98809.94;;;31.34;35.76
37634;BME280;32048;49.902;22.508;2022-07-29T13:05:24;98800.94;;;31.46;36.04
37634;BME280;32048;49.902;22.508;2022-07-29T13:07:51;98808.66;;;31.56;35.14
37634;BME280;32048;49.902;22.508;2022-07-29T13:10:23;98789.38;;;31.51;34.99
37634;BME280;32048;49.902;22.508;2022-07-29T13:15:29;98796.50;;;31.52;35.46
37634;BME280;32048;49.902;22.508;2022-07-29T13:17:56;98794.63;;;31.39;34.25
37634;BME280;32048;49.902;22.508;2022-07-29T13:20:24;98783.97;;;31.04;36.12
37634;BME280;32048;49.902;22.508;2022-07-29T13:22:51;98792.16;;;30.98;36.86
37634;BME280;32048;49.902;22.508;2022-07-29T13:25:31;98790.88;;;30.94;37.20
37634;BME280;32048;49.902;22.508;2022-07-29T13:27:59;98782.69;;;31.00;36.58
37634;BME280;32048;49.902;22.508;2022-07-29T13:30:26;98780.19;;;31.05;36.48
37634;BME280;32048;49.902;22.508;2022-07-29T13:32:53;98777.03;;;31.15;36.93
37634;BME280;32048;49.902;22.508;2022-07-29T13:35:21;98774.69;;;31.25;35.74
37634;BME280;32048;49.902;22.508;2022-07-29T13:37:48;98776.19;;;31.15;35.40
37634;BME280;32048;49.902;22.508;2022-07-29T13:40:17;98774.75;;;30.85;36.14
37634;BME280;32048;49.902;22.508;2022-07-29T13:42:44;98769.06;;;30.87;36.73
37634;BME280;32048;49.902;22.508;2022-07-29T13:45:12;98776.41;;;30.93;35.82
37634;BME280;32048;49.902;22.508;2022-07-29T13:47:39;98772.66;;;30.94;36.76
37634;BME280;32048;49.902;22.508;2022-07-29T13:50:14;98777.06;;;30.95;36.49
37634;BME280;32048;49.902;22.508;2022-07-29T13:52:41;98772.03;;;30.92;35.70